Lake Sumner, New Mexico
Current Conditions -  °F | °C
As of 6:56 PM on Thursday 20 Nov 2014 (Local Time) from K4MR Reporting Station
Clear Clear  
Wind Chill: 11°   Ceiling: Unl
Heat Index: 11°   Visibility: 10mi
Dew Point: -10°   Wind: 12mph
Humidity: 23%   Direction: 260°W
Pressure: 29.99"   Gusts: NA
Location:  34.3001°N, 104.256°W
Report Text: K4MR 210156Z AUTO 26010KT 10SM CLR 11/M10 A2999 RMK AO2 SLP136 T01071101
Loading
Personal Weather Stations






























Interactive Weather Map New forecast layout! Learn more

10-Day Weather Forecast

Advertisements
Track Severe Weather on mobile